createdAt,value
2024-03-17T00:02:48.336Z,68.07
2024-03-17T00:07:51.156Z,60.64
2024-03-17T00:12:54.020Z,53.42
2024-03-17T00:17:56.915Z,54.82
2024-03-17T00:22:59.805Z,56.02
2024-03-17T00:28:04.195Z,57.80
2024-03-17T00:33:07.112Z,58.87
2024-03-17T00:38:13.598Z,60.62
2024-03-17T00:43:16.772Z,64.67
2024-03-17T00:48:20.050Z,54.71
2024-03-17T00:53:22.907Z,54.58
2024-03-17T00:58:25.787Z,57.79
2024-03-17T01:03:29.186Z,58.98
2024-03-17T01:08:32.905Z,60.35
2024-03-17T01:13:42.661Z,67.45
2024-03-17T01:18:46.853Z,60.15
2024-03-17T01:23:50.645Z,52.43
2024-03-17T01:28:53.433Z,54.33
2024-03-17T01:33:56.934Z,56.22
2024-03-17T01:39:01.215Z,57.55
2024-03-17T01:44:05.008Z,59.13
2024-03-17T01:49:09.187Z,60.73
2024-03-17T01:54:12.982Z,66.98
2024-03-17T01:59:15.966Z,59.52
2024-03-17T02:04:19.198Z,51.53
2024-03-17T02:09:23.165Z,52.69
2024-03-17T02:14:26.137Z,53.64
2024-03-17T02:19:28.975Z,55.49
2024-03-17T02:24:31.830Z,56.94
2024-03-17T02:29:34.662Z,57.92
2024-03-17T02:34:38.753Z,58.93
2024-03-17T02:39:42.600Z,59.19
2024-03-17T02:44:46.743Z,59.42
2024-03-17T02:49:51.727Z,59.69
2024-03-17T02:54:59.554Z,60.12
2024-03-17T03:00:05.619Z,60.39
2024-03-17T03:05:08.692Z,60.69
2024-03-17T03:10:11.621Z,60.49
2024-03-17T03:15:14.497Z,60.69
2024-03-17T03:20:17.412Z,60.67
2024-03-17T03:25:20.398Z,61.09
2024-03-17T03:30:23.311Z,61.03
2024-03-17T03:35:29.525Z,61.18
2024-03-17T03:40:33.929Z,61.29
2024-03-17T03:45:38.351Z,61.29
2024-03-17T03:50:41.781Z,61.43
2024-03-17T03:55:44.630Z,61.29
2024-03-17T04:00:47.448Z,61.86
2024-03-17T04:05:50.356Z,69.28
2024-03-17T04:10:53.220Z,61.41
2024-03-17T04:16:00.050Z,51.31
2024-03-17T04:21:13.156Z,51.88
2024-03-17T04:26:16.049Z,53.37
2024-03-17T04:31:19.007Z,55.49
2024-03-17T04:36:22.006Z,57.38
2024-03-17T04:41:25.092Z,58.66
2024-03-17T04:46:28.088Z,59.74
2024-03-17T04:51:31.089Z,59.90
2024-03-17T04:56:34.170Z,60.37
2024-03-17T05:01:37.421Z,60.59
2024-03-17T05:06:42.876Z,59.98
2024-03-17T05:11:46.108Z,59.80
2024-03-17T05:16:52.328Z,60.03
2024-03-17T05:21:55.174Z,61.14
2024-03-17T05:26:57.976Z,61.18
2024-03-17T05:32:00.867Z,60.33
2024-03-17T05:37:06.249Z,60.82
2024-03-17T05:42:10.338Z,61.04
2024-03-17T05:47:13.975Z,60.01
2024-03-17T05:52:16.862Z,58.99
2024-03-17T05:57:19.778Z,59.76
2024-03-17T06:02:22.723Z,60.13
2024-03-17T06:07:25.514Z,59.64
2024-03-17T06:12:28.415Z,58.77
2024-03-17T06:17:31.618Z,58.90
2024-03-17T06:22:35.772Z,58.65
2024-03-17T06:27:38.632Z,58.28
2024-03-17T06:32:42.588Z,57.88
2024-03-17T06:37:46.425Z,57.68
2024-03-17T06:42:49.291Z,56.44
2024-03-17T06:47:52.565Z,56.13
2024-03-17T06:52:55.489Z,55.77
2024-03-17T06:57:58.325Z,55.55
2024-03-17T07:03:01.428Z,55.59
2024-03-17T07:08:05.426Z,56.32
2024-03-17T07:13:08.418Z,55.41
2024-03-17T07:18:11.320Z,55.62
2024-03-17T07:23:14.441Z,55.35
2024-03-17T07:28:17.356Z,54.93
2024-03-17T07:33:23.223Z,55.49
2024-03-17T07:38:27.217Z,55.50
2024-03-17T07:43:32.637Z,54.82
2024-03-17T07:48:37.389Z,55.00
2024-03-17T07:53:42.531Z,54.87
2024-03-17T07:58:46.255Z,53.98
2024-03-17T08:03:56.683Z,52.97
2024-03-17T08:08:59.538Z,51.54
2024-03-17T08:14:03.000Z,51.43
2024-03-17T08:19:05.992Z,50.49
2024-03-17T08:24:09.312Z,50.51
2024-03-17T08:29:12.833Z,50.27
2024-03-17T08:34:15.716Z,50.11
2024-03-17T08:39:18.700Z,49.34
2024-03-17T08:44:21.662Z,49.87
2024-03-17T08:49:24.687Z,50.17
2024-03-17T08:54:27.523Z,50.38
2024-03-17T08:59:30.364Z,50.33
2024-03-17T09:04:33.439Z,49.05
2024-03-17T09:09:36.262Z,48.14
2024-03-17T09:14:39.258Z,48.24
2024-03-17T09:19:43.663Z,47.62
2024-03-17T09:24:47.332Z,47.52
2024-03-17T09:29:50.153Z,47.90
2024-03-17T09:34:53.105Z,47.26
2024-03-17T09:39:58.229Z,46.96
2024-03-17T09:45:02.118Z,46.53
2024-03-17T09:50:06.562Z,46.52
2024-03-17T09:55:15.786Z,45.85
2024-03-17T10:00:19.315Z,46.28
2024-03-17T10:05:26.820Z,46.52
2024-03-17T10:10:29.695Z,46.38
2024-03-17T10:15:33.123Z,45.44
2024-03-17T10:20:36.018Z,45.92
2024-03-17T10:25:41.776Z,46.30
2024-03-17T10:30:58.188Z,45.12
2024-03-17T10:36:02.985Z,45.19
2024-03-17T10:41:07.106Z,43.87
2024-03-17T10:46:15.513Z,44.61
2024-03-17T10:51:19.546Z,43.52
2024-03-17T10:56:25.297Z,42.34
2024-03-17T11:01:28.021Z,42.48
2024-03-17T11:06:31.008Z,42.65
2024-03-17T11:11:39.000Z,42.76
2024-03-17T11:16:41.842Z,41.59
2024-03-17T11:21:45.148Z,42.00
2024-03-17T11:26:48.013Z,40.69
2024-03-17T11:31:56.233Z,40.09
2024-03-17T11:37:00.918Z,40.25
2024-03-17T11:42:11.700Z,40.06
2024-03-17T11:47:14.400Z,39.76
2024-03-17T11:52:17.791Z,39.64
2024-03-17T11:57:23.919Z,38.55
2024-03-17T12:02:28.966Z,38.47
2024-03-17T12:07:45.508Z,36.97
2024-03-17T12:12:50.946Z,37.12
2024-03-17T12:17:54.590Z,36.31
2024-03-17T12:22:58.838Z,37.01
2024-03-17T12:28:02.065Z,37.26
2024-03-17T12:33:05.877Z,37.64
2024-03-17T12:38:22.871Z,35.89
2024-03-17T12:43:27.570Z,36.32
2024-03-17T12:48:30.742Z,36.61
2024-03-17T12:53:34.078Z,36.98
2024-03-17T12:58:55.095Z,37.03
2024-03-17T13:04:08.116Z,36.48
2024-03-17T13:09:11.433Z,36.92
2024-03-17T13:14:18.412Z,36.74
2024-03-17T13:19:23.516Z,35.72
2024-03-17T13:24:26.571Z,36.29
2024-03-17T13:29:29.322Z,36.41
2024-03-17T13:34:32.461Z,37.03
2024-03-17T13:39:35.610Z,36.37
2024-03-17T13:44:38.441Z,35.99
2024-03-17T13:49:41.588Z,35.80
2024-03-17T13:54:44.653Z,35.45
2024-03-17T13:59:49.605Z,34.71
2024-03-17T14:04:52.393Z,35.03
2024-03-17T14:09:55.274Z,35.71
2024-03-17T14:14:58.358Z,34.71
2024-03-17T14:20:01.238Z,35.23
2024-03-17T14:25:08.467Z,35.78
2024-03-17T14:30:14.513Z,35.66
2024-03-17T14:35:19.138Z,35.76
2024-03-17T14:40:24.980Z,36.57
2024-03-17T14:45:28.136Z,36.42
2024-03-17T14:50:31.055Z,36.94
2024-03-17T14:55:34.586Z,37.20
2024-03-17T15:00:37.521Z,36.49
2024-03-17T15:05:40.768Z,36.23
2024-03-17T15:10:43.640Z,36.55
2024-03-17T15:15:48.163Z,36.65
2024-03-17T15:20:54.648Z,37.35
2024-03-17T15:26:10.858Z,38.05
2024-03-17T15:31:14.235Z,38.53
2024-03-17T15:36:17.337Z,39.11
2024-03-17T15:41:20.109Z,40.00
2024-03-17T15:46:23.455Z,41.04
2024-03-17T15:51:28.679Z,41.11
2024-03-17T15:56:34.710Z,41.86
2024-03-17T16:01:37.537Z,42.24
2024-03-17T16:06:40.917Z,42.20
2024-03-17T16:11:43.810Z,42.54
2024-03-17T16:16:46.864Z,42.89
2024-03-17T16:21:49.990Z,43.16
2024-03-17T16:26:55.464Z,43.00
2024-03-17T16:31:59.991Z,43.11
2024-03-17T16:37:03.085Z,42.96
2024-03-17T16:42:06.500Z,42.86
2024-03-17T16:47:29.867Z,42.90
2024-03-17T16:52:33.954Z,43.33
2024-03-17T16:57:37.702Z,43.30
2024-03-17T17:02:45.351Z,43.30
2024-03-17T17:07:48.346Z,43.59
2024-03-17T17:12:51.430Z,43.56
2024-03-17T17:17:58.187Z,43.58
2024-03-17T17:23:01.521Z,43.61
2024-03-17T17:28:05.385Z,43.74
2024-03-17T17:33:08.777Z,43.42
2024-03-17T17:38:11.807Z,43.18
2024-03-17T17:43:14.740Z,42.95
2024-03-17T17:48:18.537Z,43.18
2024-03-17T17:53:21.690Z,42.99
2024-03-17T17:58:25.726Z,43.14
2024-03-17T18:03:29.108Z,43.01
2024-03-17T18:08:34.001Z,43.09
2024-03-17T18:13:37.004Z,43.13
2024-03-17T18:18:42.979Z,43.13
2024-03-17T18:23:45.970Z,43.21
2024-03-17T18:28:51.715Z,43.31
2024-03-17T18:33:57.724Z,43.39
2024-03-17T18:39:00.727Z,43.51
2024-03-17T18:44:05.149Z,43.56
2024-03-17T18:49:11.698Z,43.65
2024-03-17T18:54:14.563Z,43.71
2024-03-17T18:59:20.326Z,43.57
2024-03-17T19:04:23.424Z,43.77
2024-03-17T19:09:28.385Z,43.86
2024-03-17T19:14:31.374Z,43.92
2024-03-17T19:19:34.375Z,43.92
2024-03-17T19:24:37.341Z,44.04
2024-03-17T19:29:41.410Z,44.20
2024-03-17T19:34:44.960Z,44.24
2024-03-17T19:39:48.026Z,44.47
2024-03-17T19:44:51.105Z,44.58
2024-03-17T19:49:54.011Z,44.72
2024-03-17T19:54:57.498Z,44.82
2024-03-17T20:00:01.440Z,45.15
2024-03-17T20:05:14.713Z,45.37
2024-03-17T20:10:18.742Z,45.48
2024-03-17T20:15:24.376Z,46.49
2024-03-17T20:20:28.575Z,47.08
2024-03-17T20:25:33.427Z,47.81
2024-03-17T20:30:36.567Z,48.28
2024-03-17T20:35:41.668Z,48.51
2024-03-17T20:40:45.573Z,49.05
2024-03-17T20:45:48.654Z,49.56
2024-03-17T20:50:51.947Z,49.64
2024-03-17T20:55:54.961Z,50.61
2024-03-17T21:00:59.188Z,49.78
2024-03-17T21:06:03.807Z,49.96
2024-03-17T21:11:07.813Z,49.84
2024-03-17T21:16:11.230Z,49.80
2024-03-17T21:21:14.129Z,49.38
2024-03-17T21:26:17.224Z,49.19
2024-03-17T21:31:20.142Z,49.33
2024-03-17T21:36:24.207Z,49.63
2024-03-17T21:41:27.275Z,49.56
2024-03-17T21:46:30.232Z,49.44
2024-03-17T21:51:33.095Z,49.54
2024-03-17T21:56:35.960Z,49.87
2024-03-17T22:01:38.902Z,49.88
2024-03-17T22:06:42.218Z,50.18
2024-03-17T22:11:45.673Z,50.03
2024-03-17T22:16:49.038Z,50.21
2024-03-17T22:21:51.746Z,50.20
2024-03-17T22:26:54.698Z,49.67
2024-03-17T22:31:57.448Z,49.84
2024-03-17T22:37:00.550Z,49.76
2024-03-17T22:42:05.764Z,49.89
2024-03-17T22:47:09.111Z,49.16
2024-03-17T22:52:11.879Z,48.84
2024-03-17T22:57:15.193Z,48.44
2024-03-17T23:02:18.069Z,48.19
2024-03-17T23:07:21.378Z,48.02
2024-03-17T23:12:24.520Z,47.75
2024-03-17T23:17:27.293Z,47.64
2024-03-17T23:22:30.203Z,47.75
2024-03-17T23:27:33.038Z,47.60
2024-03-17T23:32:39.856Z,47.57
2024-03-17T23:37:42.773Z,47.25
2024-03-17T23:42:45.758Z,47.11
2024-03-17T23:47:49.025Z,46.54
2024-03-17T23:52:52.132Z,46.40
2024-03-17T23:57:54.997Z,46.41
